Ocean King D — V7TV6 — position and weather

sailwx.info

Track history (hours):
 
Tides and Currents Weather Stations Pressure Air Temp Water Temp Dewpoint Dewpoint Depression Visibility Wind Speed Wind Dir Waves Ship Positions

Ocean King D

Last reported at 2014-Jun-26 01:32 UTC. Time now 2014-Jul-31 05:28 UTC.
Position S 34°31' E 017°58'.
Warning: this ship's position is 35 days out of date.

Length 190 m; draft 9.7 m.

Type: Cargo ship. MMSI: 538003892.

Date/timePositionNaut miles runAvg speedWind from/ knotsBaromVisibWave heightAir tempDewpointWater temp
2014-Jun-26 01:32S 34°31' E 017°58'1413.4
2014-Jun-26 00:29S 34°37' E 018°13'1812.9
2014-Jun-25 23:07S 34°42' E 018°34'912.5
2014-Jun-25 22:22S 34°45' E 018°45'32812.2
2014-Jun-24 19:33S 34°14' E 025°21'8312.9
2014-Jun-24 13:10S 33°46' E 026°55'4313.9
2014-Jun-24 10:05S 33°24' E 027°39'22514.5
2014-Jun-23 18:30S 30°42' E 030°44'1513.5
2014-Jun-23 17:22S 30°29' E 030°53'1012.5
2014-Jun-23 16:33S 30°20' E 030°58'1313.0
2014-Jun-23 15:33S 30°08' E 031°05'1313.1
2014-Jun-23 14:33S 29°57' E 031°12'19 9.4
2014-Jun-23 12:33S 29°40' E 031°22'1212.3
2014-Jun-23 11:33S 29°32' E 031°33'1413.9
2014-Jun-23 10:33S 29°23' E 031°45'1514.8
2014-Jun-23 09:33S 29°14' E 031°59'1515.2
2014-Jun-23 08:33S 29°05' E 032°13'2014.7
2014-Jun-23 07:11S 28°52' E 032°31'  
Track history (hours):
 
Tides and Currents Weather Stations Pressure Air Temp Water Temp Dewpoint Dewpoint Depression Visibility Wind Speed Wind Dir Waves Ship Positions

Ocean King D

Last reported at 2014-Jun-26 01:32 UTC. Time now 2014-Jul-31 05:28 UTC.
Position S 34°31' E 017°58'.
Warning: this ship's position is 35 days out of date.

Length 190 m; draft 9.7 m.

Type: Cargo ship. MMSI: 538003892.

Date/timePositionNaut miles runAvg speedWind from/ knotsBaromVisibWave heightAir tempDewpointWater temp
2014-Jun-26 01:32S 34°31' E 017°58'1413.4
2014-Jun-26 00:29S 34°37' E 018°13'1812.9
2014-Jun-25 23:07S 34°42' E 018°34'912.5
2014-Jun-25 22:22S 34°45' E 018°45'32812.2
2014-Jun-24 19:33S 34°14' E 025°21'8312.9
2014-Jun-24 13:10S 33°46' E 026°55'4313.9
2014-Jun-24 10:05S 33°24' E 027°39'22514.5
2014-Jun-23 18:30S 30°42' E 030°44'1513.5
2014-Jun-23 17:22S 30°29' E 030°53'1012.5
2014-Jun-23 16:33S 30°20' E 030°58'1313.0
2014-Jun-23 15:33S 30°08' E 031°05'1313.1
2014-Jun-23 14:33S 29°57' E 031°12'19 9.4
2014-Jun-23 12:33S 29°40' E 031°22'1212.3
2014-Jun-23 11:33S 29°32' E 031°33'1413.9
2014-Jun-23 10:33S 29°23' E 031°45'1514.8
2014-Jun-23 09:33S 29°14' E 031°59'1515.2
2014-Jun-23 08:33S 29°05' E 032°13'2014.7
2014-Jun-23 07:11S 28°52' E 032°31'  

Dump ship's entire track history